LXJ651 KIXD-KMSP
Flight info
| Callsign | LXJ651 |
|---|---|
| Flight time | 0h 56m |
| Altitude | 45000 |
| Route | ROYAL2 TONCE ROKKK NITZR4 |
| Aircraft | GLF6/M-SBDE2E3FGHIJ4J5M1RWXY/LB1D1 |
Departure
| Time | 2026-05-06 02:51 |
|---|---|
| Airport | New Century AirCenter Airport (KIXD) |
Arrival
| Time | 2026-05-06 03:48 |
|---|---|
| Airport | Minneapolis–Saint Paul International Airport / Wold–Chamberlain Field (KMSP) |
| Time | Latitude | Longitude | Altitude | Speed | Heading |
|---|---|---|---|---|---|
| 2026-05-06 02:43 | 38.83234 | -94.89428 | 1073 ft | 0 kts | 183° |
| 2026-05-06 02:47 | 38.83217 | -94.89425 | 1075 ft | 7 kts | 159° |
| 2026-05-06 02:48 | 38.83205 | -94.89365 | 1073 ft | 8 kts | 89° |
| 2026-05-06 02:48 | 38.83173 | -94.89318 | 1073 ft | 9 kts | 173° |
| 2026-05-06 02:48 | 38.83089 | -94.89317 | 1071 ft | 16 kts | 180° |
| 2026-05-06 02:48 | 38.82960 | -94.89324 | 1068 ft | 22 kts | 187° |
| 2026-05-06 02:49 | 38.82796 | -94.89335 | 1067 ft | 24 kts | 179° |
| 2026-05-06 02:49 | 38.82626 | -94.89334 | 1065 ft | 25 kts | 180° |
| 2026-05-06 02:49 | 38.82450 | -94.89334 | 1063 ft | 26 kts | 180° |
| 2026-05-06 02:49 | 38.82269 | -94.89335 | 1062 ft | 27 kts | 180° |
| 2026-05-06 02:50 | 38.82081 | -94.89336 | 1058 ft | 27 kts | 180° |
| 2026-05-06 02:50 | 38.81954 | -94.89308 | 1056 ft | 14 kts | 118° |
| 2026-05-06 02:50 | 38.81954 | -94.89182 | 1056 ft | 14 kts | 58° |
| 2026-05-06 02:50 | 38.82081 | -94.89163 | 1058 ft | 39 kts | 360° |
| 2026-05-06 02:51 | 38.82675 | -94.89164 | 1068 ft | 130 kts | 360° |
| 2026-05-06 02:51 | 38.83804 | -94.89165 | 1442 ft | 187 kts | 360° |
| 2026-05-06 02:51 | 38.85116 | -94.89203 | 2447 ft | 176 kts | 358° |
| 2026-05-06 02:51 | 38.86355 | -94.89264 | 3363 ft | 178 kts | 358° |
| 2026-05-06 02:52 | 38.87675 | -94.89367 | 4386 ft | 209 kts | 358° |
| 2026-05-06 02:52 | 38.89276 | -94.89497 | 5434 ft | 244 kts | 358° |
| 2026-05-06 02:52 | 38.90922 | -94.89185 | 6452 ft | 244 kts | 18° |
| 2026-05-06 02:52 | 38.92539 | -94.88368 | 7437 ft | 256 kts | 19° |
| 2026-05-06 02:53 | 38.94243 | -94.87600 | 8435 ft | 271 kts | 14° |
| 2026-05-06 02:53 | 38.96078 | -94.86893 | 9477 ft | 283 kts | 12° |
| 2026-05-06 02:53 | 38.98006 | -94.86134 | 10467 ft | 296 kts | 12° |
| 2026-05-06 02:53 | 39.00070 | -94.85292 | 11452 ft | 328 kts | 12° |
| 2026-05-06 02:54 | 39.02340 | -94.84372 | 12466 ft | 350 kts | 12° |
| 2026-05-06 02:54 | 39.04736 | -94.83399 | 12874 ft | 374 kts | 12° |
| 2026-05-06 02:54 | 39.07238 | -94.82378 | 13903 ft | 380 kts | 12° |
| 2026-05-06 02:54 | 39.09786 | -94.81338 | 14882 ft | 388 kts | 11° |
| 2026-05-06 02:55 | 39.12339 | -94.80306 | 15920 ft | 394 kts | 11° |
| 2026-05-06 02:55 | 39.14979 | -94.79236 | 16932 ft | 401 kts | 11° |
| 2026-05-06 02:55 | 39.17659 | -94.78142 | 17970 ft | 408 kts | 11° |
| 2026-05-06 02:55 | 39.20392 | -94.77028 | 18889 ft | 415 kts | 11° |
| 2026-05-06 02:56 | 39.23171 | -94.75896 | 19746 ft | 423 kts | 11° |
| 2026-05-06 02:56 | 39.26004 | -94.74741 | 20591 ft | 431 kts | 11° |
| 2026-05-06 02:56 | 39.28916 | -94.73745 | 21382 ft | 433 kts | 3° |
| 2026-05-06 02:56 | 39.31911 | -94.73332 | 22194 ft | 436 kts | 357° |
| 2026-05-06 02:57 | 39.34920 | -94.73002 | 22978 ft | 444 kts | 358° |
| 2026-05-06 02:57 | 39.38021 | -94.72634 | 23747 ft | 452 kts | 357° |
| 2026-05-06 02:57 | 39.41167 | -94.72276 | 24523 ft | 455 kts | 356° |
| 2026-05-06 02:57 | 39.44335 | -94.71926 | 25317 ft | 458 kts | 355° |
| 2026-05-06 02:58 | 39.47526 | -94.71569 | 26078 ft | 462 kts | 354° |
| 2026-05-06 02:58 | 39.50744 | -94.71200 | 26835 ft | 466 kts | 354° |
| 2026-05-06 02:58 | 39.53988 | -94.70832 | 27584 ft | 470 kts | 353° |
| 2026-05-06 02:58 | 39.57261 | -94.70462 | 28326 ft | 474 kts | 353° |
| 2026-05-06 02:59 | 39.60561 | -94.70089 | 29051 ft | 478 kts | 352° |
| 2026-05-06 02:59 | 39.63891 | -94.69710 | 29748 ft | 483 kts | 352° |
| 2026-05-06 02:59 | 39.67206 | -94.69333 | 30355 ft | 487 kts | 352° |
| 2026-05-06 02:59 | 39.70607 | -94.68947 | 30868 ft | 493 kts | 352° |
| 2026-05-06 03:00 | 39.74038 | -94.68555 | 31386 ft | 498 kts | 352° |
| 2026-05-06 03:00 | 39.77507 | -94.68157 | 31884 ft | 503 kts | 352° |
| 2026-05-06 03:00 | 39.81014 | -94.67758 | 32382 ft | 508 kts | 351° |
| 2026-05-06 03:00 | 39.84553 | -94.67354 | 32890 ft | 513 kts | 351° |
| 2026-05-06 03:01 | 39.88122 | -94.66945 | 33382 ft | 518 kts | 351° |
| 2026-05-06 03:01 | 39.91686 | -94.66536 | 33867 ft | 523 kts | 351° |
| 2026-05-06 03:01 | 39.95318 | -94.66115 | 34484 ft | 523 kts | 351° |
| 2026-05-06 03:01 | 39.98944 | -94.65694 | 35098 ft | 523 kts | 351° |
| 2026-05-06 03:02 | 40.02567 | -94.65279 | 35723 ft | 522 kts | 351° |
| 2026-05-06 03:02 | 40.06186 | -94.64867 | 36361 ft | 522 kts | 351° |
| 2026-05-06 03:02 | 40.09808 | -94.64448 | 36996 ft | 522 kts | 351° |
| 2026-05-06 03:02 | 40.13417 | -94.64028 | 37645 ft | 521 kts | 351° |
| 2026-05-06 03:03 | 40.17024 | -94.63612 | 38296 ft | 520 kts | 351° |
| 2026-05-06 03:03 | 40.20576 | -94.63205 | 38875 ft | 519 kts | 351° |
| 2026-05-06 03:03 | 40.24170 | -94.62787 | 39448 ft | 517 kts | 352° |
| 2026-05-06 03:03 | 40.27742 | -94.62360 | 40032 ft | 516 kts | 354° |
| 2026-05-06 03:04 | 40.31321 | -94.61601 | 40557 ft | 523 kts | 359° |
| 2026-05-06 03:04 | 40.34887 | -94.60757 | 41122 ft | 519 kts | 359° |
| 2026-05-06 03:04 | 40.38435 | -94.59970 | 41682 ft | 516 kts | 359° |
| 2026-05-06 03:04 | 40.41964 | -94.59175 | 42221 ft | 514 kts | 360° |
| 2026-05-06 03:05 | 40.45478 | -94.58348 | 42761 ft | 512 kts | 0° |
| 2026-05-06 03:05 | 40.48973 | -94.57527 | 43274 ft | 509 kts | 1° |
| 2026-05-06 03:05 | 40.52410 | -94.56743 | 43750 ft | 507 kts | 1° |
| 2026-05-06 03:05 | 40.55882 | -94.55949 | 44221 ft | 506 kts | 1° |
| 2026-05-06 03:06 | 40.59343 | -94.55142 | 44670 ft | 504 kts | 2° |
| 2026-05-06 03:06 | 40.62794 | -94.54338 | 44992 ft | 505 kts | 2° |
| 2026-05-06 03:06 | 40.66278 | -94.53536 | 44978 ft | 512 kts | 2° |
| 2026-05-06 03:07 | 40.73389 | -94.51885 | 44995 ft | 525 kts | 2° |
| 2026-05-06 03:07 | 40.80580 | -94.50201 | 45003 ft | 527 kts | 2° |
| 2026-05-06 03:08 | 40.87781 | -94.48524 | 45005 ft | 525 kts | 2° |
| 2026-05-06 03:08 | 40.94981 | -94.46839 | 45007 ft | 527 kts | 2° |
| 2026-05-06 03:09 | 41.02245 | -94.45137 | 45011 ft | 532 kts | 3° |
| 2026-05-06 03:09 | 41.09539 | -94.43419 | 45017 ft | 533 kts | 3° |
| 2026-05-06 03:10 | 41.16794 | -94.41712 | 45004 ft | 534 kts | 3° |
| 2026-05-06 03:10 | 41.24112 | -94.39983 | 45003 ft | 534 kts | 3° |
| 2026-05-06 03:11 | 41.31432 | -94.38251 | 44992 ft | 534 kts | 3° |
| 2026-05-06 03:11 | 41.38758 | -94.36512 | 44987 ft | 535 kts | 3° |
| 2026-05-06 03:12 | 41.46029 | -94.34785 | 44987 ft | 534 kts | 3° |
| 2026-05-06 03:12 | 41.53343 | -94.33042 | 44988 ft | 534 kts | 3° |
| 2026-05-06 03:13 | 41.60661 | -94.31294 | 44989 ft | 534 kts | 3° |
| 2026-05-06 03:13 | 41.67972 | -94.29544 | 44991 ft | 534 kts | 3° |
| 2026-05-06 03:14 | 41.75235 | -94.27802 | 44993 ft | 534 kts | 3° |
| 2026-05-06 03:14 | 41.82548 | -94.26043 | 44992 ft | 534 kts | 3° |
| 2026-05-06 03:15 | 41.89858 | -94.24281 | 44990 ft | 534 kts | 3° |
| 2026-05-06 03:15 | 41.97180 | -94.22512 | 44988 ft | 535 kts | 3° |
| 2026-05-06 03:16 | 42.04457 | -94.20750 | 44989 ft | 535 kts | 3° |
| 2026-05-06 03:16 | 42.11796 | -94.18967 | 44983 ft | 536 kts | 3° |
| 2026-05-06 03:17 | 42.19133 | -94.17183 | 44986 ft | 536 kts | 3° |
| 2026-05-06 03:17 | 42.26466 | -94.15394 | 44990 ft | 536 kts | 3° |
| 2026-05-06 03:18 | 42.33754 | -94.13613 | 45006 ft | 536 kts | 4° |
| 2026-05-06 03:18 | 42.41086 | -94.11816 | 45012 ft | 535 kts | 4° |
| 2026-05-06 03:19 | 42.48420 | -94.10016 | 45022 ft | 535 kts | 4° |
| 2026-05-06 03:19 | 42.55752 | -94.08210 | 45013 ft | 536 kts | 4° |
| 2026-05-06 03:20 | 42.66222 | -94.03246 | 44377 ft | 535 kts | 24° |
| 2026-05-06 03:20 | 42.69436 | -94.00719 | 43684 ft | 532 kts | 24° |
| 2026-05-06 03:20 | 42.72654 | -93.98243 | 42997 ft | 530 kts | 23° |
| 2026-05-06 03:21 | 42.75866 | -93.95782 | 42314 ft | 531 kts | 23° |
| 2026-05-06 03:21 | 42.79081 | -93.93278 | 41625 ft | 534 kts | 23° |
| 2026-05-06 03:21 | 42.82311 | -93.90747 | 40931 ft | 538 kts | 23° |
| 2026-05-06 03:21 | 42.85570 | -93.88214 | 40232 ft | 541 kts | 22° |
| 2026-05-06 03:22 | 42.88861 | -93.85681 | 39520 ft | 544 kts | 22° |
| 2026-05-06 03:22 | 42.92128 | -93.83190 | 38824 ft | 547 kts | 21° |
| 2026-05-06 03:22 | 42.95448 | -93.80642 | 38053 ft | 549 kts | 22° |
| 2026-05-06 03:22 | 42.98764 | -93.78070 | 37334 ft | 547 kts | 22° |
| 2026-05-06 03:23 | 43.02076 | -93.75505 | 36628 ft | 546 kts | 21° |
| 2026-05-06 03:23 | 43.05385 | -93.72960 | 35923 ft | 545 kts | 21° |
| 2026-05-06 03:23 | 43.08687 | -93.70414 | 35216 ft | 545 kts | 21° |
| 2026-05-06 03:23 | 43.11985 | -93.67852 | 34511 ft | 544 kts | 21° |
| 2026-05-06 03:24 | 43.15274 | -93.65294 | 33769 ft | 543 kts | 21° |
| 2026-05-06 03:24 | 43.18506 | -93.62787 | 33070 ft | 540 kts | 21° |
| 2026-05-06 03:24 | 43.21762 | -93.60260 | 32368 ft | 536 kts | 21° |
| 2026-05-06 03:24 | 43.25029 | -93.57922 | 31666 ft | 523 kts | 15° |
| 2026-05-06 03:25 | 43.28393 | -93.56212 | 30999 ft | 508 kts | 8° |
| 2026-05-06 03:25 | 43.31781 | -93.55092 | 30346 ft | 494 kts | 0° |
| 2026-05-06 03:25 | 43.35145 | -93.54535 | 29662 ft | 480 kts | 353° |
| 2026-05-06 03:25 | 43.38453 | -93.54269 | 29043 ft | 474 kts | 353° |
| 2026-05-06 03:26 | 43.41729 | -93.53967 | 28424 ft | 470 kts | 353° |
| 2026-05-06 03:26 | 43.44982 | -93.53670 | 27809 ft | 467 kts | 353° |
| 2026-05-06 03:26 | 43.48165 | -93.53400 | 27210 ft | 463 kts | 353° |
| 2026-05-06 03:26 | 43.51368 | -93.53128 | 26612 ft | 458 kts | 353° |
| 2026-05-06 03:27 | 43.54518 | -93.52843 | 26022 ft | 451 kts | 353° |
| 2026-05-06 03:27 | 43.57632 | -93.52567 | 25448 ft | 445 kts | 353° |
| 2026-05-06 03:27 | 43.60704 | -93.52303 | 24864 ft | 441 kts | 353° |
| 2026-05-06 03:27 | 43.63748 | -93.52037 | 24298 ft | 436 kts | 353° |
| 2026-05-06 03:28 | 43.66764 | -93.51770 | 23733 ft | 431 kts | 353° |
| 2026-05-06 03:28 | 43.69741 | -93.51504 | 23127 ft | 426 kts | 353° |
| 2026-05-06 03:28 | 43.72670 | -93.51245 | 22580 ft | 418 kts | 353° |
| 2026-05-06 03:28 | 43.75515 | -93.50997 | 22051 ft | 412 kts | 353° |
| 2026-05-06 03:29 | 43.78359 | -93.50746 | 21510 ft | 407 kts | 354° |
| 2026-05-06 03:29 | 43.81164 | -93.50497 | 20988 ft | 401 kts | 354° |
| 2026-05-06 03:29 | 43.83923 | -93.50252 | 20475 ft | 394 kts | 354° |
| 2026-05-06 03:29 | 43.86641 | -93.50012 | 19969 ft | 388 kts | 354° |
| 2026-05-06 03:30 | 43.89318 | -93.49777 | 19489 ft | 383 kts | 355° |
| 2026-05-06 03:30 | 43.91959 | -93.49545 | 18997 ft | 378 kts | 356° |
| 2026-05-06 03:30 | 43.94557 | -93.49309 | 18514 ft | 371 kts | 356° |
| 2026-05-06 03:30 | 43.97115 | -93.49069 | 17995 ft | 366 kts | 358° |
| 2026-05-06 03:31 | 43.99598 | -93.48765 | 17533 ft | 360 kts | 358° |
| 2026-05-06 03:31 | 44.02078 | -93.48498 | 17076 ft | 355 kts | 358° |
| 2026-05-06 03:31 | 44.04529 | -93.48232 | 16615 ft | 352 kts | 359° |
| 2026-05-06 03:31 | 44.06960 | -93.47945 | 16159 ft | 349 kts | 359° |
| 2026-05-06 03:32 | 44.09369 | -93.47664 | 15707 ft | 346 kts | 359° |
| 2026-05-06 03:32 | 44.11755 | -93.47395 | 15258 ft | 343 kts | 360° |
| 2026-05-06 03:32 | 44.14124 | -93.47126 | 14814 ft | 341 kts | 0° |
| 2026-05-06 03:32 | 44.16480 | -93.46856 | 14369 ft | 338 kts | 0° |
| 2026-05-06 03:33 | 44.18803 | -93.46379 | 13920 ft | 340 kts | 10° |
| 2026-05-06 03:33 | 44.21001 | -93.45299 | 13466 ft | 339 kts | 18° |
| 2026-05-06 03:33 | 44.23178 | -93.44076 | 13005 ft | 335 kts | 18° |
| 2026-05-06 03:33 | 44.25338 | -93.42903 | 12573 ft | 332 kts | 17° |
| 2026-05-06 03:34 | 44.27482 | -93.41728 | 12132 ft | 330 kts | 18° |
| 2026-05-06 03:34 | 44.29596 | -93.40544 | 11713 ft | 325 kts | 18° |
| 2026-05-06 03:34 | 44.31689 | -93.39367 | 11282 ft | 323 kts | 18° |
| 2026-05-06 03:34 | 44.33754 | -93.38211 | 10875 ft | 316 kts | 18° |
| 2026-05-06 03:35 | 44.35718 | -93.37109 | 10473 ft | 293 kts | 18° |
| 2026-05-06 03:35 | 44.37518 | -93.35980 | 10106 ft | 288 kts | 23° |
| 2026-05-06 03:35 | 44.39303 | -93.34680 | 9724 ft | 288 kts | 23° |
| 2026-05-06 03:35 | 44.41080 | -93.33414 | 9334 ft | 285 kts | 23° |
| 2026-05-06 03:36 | 44.42828 | -93.32164 | 8967 ft | 280 kts | 23° |
| 2026-05-06 03:36 | 44.44549 | -93.30913 | 8606 ft | 278 kts | 23° |
| 2026-05-06 03:36 | 44.46249 | -93.29666 | 8230 ft | 275 kts | 25° |
| 2026-05-06 03:36 | 44.47739 | -93.28009 | 8004 ft | 270 kts | 41° |
| 2026-05-06 03:37 | 44.48890 | -93.25998 | 8008 ft | 261 kts | 53° |
| 2026-05-06 03:37 | 44.49863 | -93.23918 | 7999 ft | 253 kts | 51° |
| 2026-05-06 03:37 | 44.50852 | -93.21920 | 8003 ft | 254 kts | 51° |
| 2026-05-06 03:37 | 44.51842 | -93.19862 | 8001 ft | 255 kts | 52° |
| 2026-05-06 03:38 | 44.52825 | -93.17790 | 8006 ft | 256 kts | 52° |
| 2026-05-06 03:38 | 44.53818 | -93.15703 | 8004 ft | 259 kts | 52° |
| 2026-05-06 03:38 | 44.54831 | -93.13584 | 7927 ft | 264 kts | 52° |
| 2026-05-06 03:38 | 44.55871 | -93.11427 | 7785 ft | 269 kts | 52° |
| 2026-05-06 03:39 | 44.56663 | -93.09757 | 7661 ft | 267 kts | 52° |
| 2026-05-06 03:39 | 44.57693 | -93.07580 | 7481 ft | 269 kts | 53° |
| 2026-05-06 03:39 | 44.58726 | -93.05406 | 7296 ft | 260 kts | 52° |
| 2026-05-06 03:39 | 44.59706 | -93.03376 | 7136 ft | 252 kts | 52° |
| 2026-05-06 03:40 | 44.60738 | -93.01441 | 6989 ft | 241 kts | 40° |
| 2026-05-06 03:40 | 44.61999 | -93.00050 | 7004 ft | 225 kts | 30° |
| 2026-05-06 03:40 | 44.63263 | -92.98760 | 7000 ft | 226 kts | 32° |
| 2026-05-06 03:40 | 44.64490 | -92.97367 | 7005 ft | 227 kts | 34° |
| 2026-05-06 03:41 | 44.65729 | -92.95957 | 6850 ft | 232 kts | 33° |
| 2026-05-06 03:41 | 44.67017 | -92.94569 | 6559 ft | 232 kts | 30° |
| 2026-05-06 03:41 | 44.68475 | -92.93661 | 6246 ft | 228 kts | 11° |
| 2026-05-06 03:41 | 44.69998 | -92.93329 | 5933 ft | 221 kts | 357° |
| 2026-05-06 03:42 | 44.71464 | -92.93547 | 5647 ft | 205 kts | 344° |
| 2026-05-06 03:42 | 44.72771 | -92.94232 | 5391 ft | 199 kts | 331° |
| 2026-05-06 03:42 | 44.73916 | -92.95302 | 5145 ft | 195 kts | 321° |
| 2026-05-06 03:42 | 44.74980 | -92.96441 | 4882 ft | 189 kts | 322° |
| 2026-05-06 03:43 | 44.76026 | -92.97523 | 4641 ft | 185 kts | 322° |
| 2026-05-06 03:43 | 44.77042 | -92.98600 | 4396 ft | 181 kts | 322° |
| 2026-05-06 03:43 | 44.78046 | -92.99661 | 4147 ft | 179 kts | 322° |
| 2026-05-06 03:43 | 44.78956 | -93.00836 | 3910 ft | 176 kts | 309° |
| 2026-05-06 03:44 | 44.79577 | -93.02234 | 3694 ft | 166 kts | 303° |
| 2026-05-06 03:44 | 44.80192 | -93.03581 | 3474 ft | 161 kts | 304° |
| 2026-05-06 03:44 | 44.80771 | -93.04943 | 3264 ft | 162 kts | 303° |
| 2026-05-06 03:44 | 44.81358 | -93.06281 | 3043 ft | 159 kts | 305° |
| 2026-05-06 03:45 | 44.81923 | -93.07596 | 2975 ft | 157 kts | 303° |
| 2026-05-06 03:45 | 44.82495 | -93.08909 | 2781 ft | 155 kts | 305° |
| 2026-05-06 03:45 | 44.83035 | -93.10169 | 2572 ft | 145 kts | 303° |
| 2026-05-06 03:45 | 44.83550 | -93.11346 | 2381 ft | 137 kts | 306° |
| 2026-05-06 03:46 | 44.84039 | -93.12478 | 2181 ft | 134 kts | 304° |
| 2026-05-06 03:46 | 44.84515 | -93.13569 | 2000 ft | 131 kts | 306° |
| 2026-05-06 03:46 | 44.84984 | -93.14661 | 1800 ft | 129 kts | 303° |
| 2026-05-06 03:46 | 44.85445 | -93.15734 | 1610 ft | 127 kts | 304° |
| 2026-05-06 03:47 | 44.85900 | -93.16801 | 1437 ft | 128 kts | 303° |
| 2026-05-06 03:47 | 44.86354 | -93.17874 | 1276 ft | 127 kts | 304° |
| 2026-05-06 03:47 | 44.86818 | -93.18911 | 1092 ft | 123 kts | 306° |
| 2026-05-06 03:47 | 44.87258 | -93.19910 | 909 ft | 118 kts | 301° |
| 2026-05-06 03:48 | 44.87670 | -93.20860 | 826 ft | 100 kts | 301° |
| 2026-05-06 03:48 | 44.87929 | -93.21452 | 826 ft | 37 kts | 301° |
| 2026-05-06 03:48 | 44.88002 | -93.21657 | 828 ft | 16 kts | 268° |
| 2026-05-06 03:48 | 44.87930 | -93.21736 | 829 ft | 16 kts | 159° |
| 2026-05-06 03:49 | 44.87880 | -93.21632 | 828 ft | 14 kts | 121° |
| 2026-05-06 03:49 | 44.87822 | -93.21525 | 829 ft | 13 kts | 162° |
| 2026-05-06 03:49 | 44.87758 | -93.21603 | 827 ft | 11 kts | 230° |
| 2026-05-06 03:49 | 44.87735 | -93.21706 | 830 ft | 11 kts | 270° |
| 2026-05-06 03:50 | 44.87735 | -93.21763 | 830 ft | 0 kts | 270° |